Time;durP1;ratioP1;P1;durP2;ratioP2;P2;SDS_P1;SDS_P2;PMS_P1;PMS_P2;Temp;Humidity;BMP_temperature;BMP_pressure;BME280_temperature;BME280_humidity;BME280_pressure;Samples;Min_cycle;Max_cycle;Signal;HPM_P1;HPM_P2
2021/12/16 00:03:36;;;;;;;16.85;12.28;;;;;;;4.63;93.61;97805.70;1772033;80;20996;-83
2021/12/16 00:33:09;;;;;;;17.10;11.18;;;;;;;4.61;93.42;97792.59;1749281;80;20972;-83
2021/12/16 00:35:15;;;;;;;17.65;11.75;;;;;;;4.61;93.47;97790.02;1735527;81;21007;-83
2021/12/16 00:37:42;;;;;;;15.45;11.22;;;;;;;4.62;93.67;97785.22;1759547;80;21461;-83
2021/12/16 00:40:11;;;;;;;17.85;11.88;;;;;;;4.66;93.77;97791.78;1771050;80;21055;-83
2021/12/16 00:45:29;;;;;;;12.88;10.82;;;;;;;4.64;93.74;97789.32;1774859;79;21074;-83
2021/12/16 00:54:06;;;;;;;13.03;9.20;;;;;;;4.66;93.54;97791.31;1760055;80;21079;-84
2021/12/16 00:55:43;;;;;;;12.53;9.58;;;;;;;4.67;93.48;97794.25;1743905;80;21048;-83
2021/12/16 00:57:58;;;;;;;13.98;10.32;;;;;;;4.66;93.51;97790.50;1765587;80;21062;-83
2021/12/16 01:00:27;;;;;;;11.45;9.20;;;;;;;4.64;93.53;97790.61;1768656;80;21087;-84
2021/12/16 01:35:38;;;;;;;16.20;9.28;;;;;;;4.80;93.32;97780.02;1769254;80;21028;-84
2021/12/16 01:46:02;;;;;;;14.00;11.50;;;;;;;4.77;92.99;97759.19;1763811;80;21065;-84
2021/12/16 01:50:43;;;;;;;14.30;10.85;;;;;;;4.70;93.18;97764.88;1779628;80;21115;-84
2021/12/16 01:55:48;;;;;;;15.40;11.08;;;;;;;4.68;93.29;97757.73;1769328;80;21016;-84
2021/12/16 01:58:18;;;;;;;14.18;10.38;;;;;;;4.74;93.66;97755.55;1779237;80;21043;-84
2021/12/16 02:01:11;;;;;;;14.83;10.32;;;;;;;4.78;93.63;97753.09;1755178;79;21039;-84
2021/12/16 02:03:46;;;;;;;15.30;10.82;;;;;;;4.82;93.68;97751.94;1750943;80;21027;-84
2021/12/16 02:08:44;;;;;;;13.45;9.85;;;;;;;4.85;93.80;97755.22;1755801;79;21023;-84
2021/12/16 02:37:36;;;;;;;26.70;19.70;;;;;;;5.01;94.38;97742.84;1719529;82;21035;-84
2021/12/16 02:40:06;;;;;;;29.82;21.12;;;;;;;5.01;94.07;97735.13;1721700;82;21394;-85
2021/12/16 02:42:38;;;;;;;24.35;17.95;;;;;;;5.01;94.08;97736.41;1725985;82;21019;-85
2021/12/16 02:50:21;;;;;;;16.75;13.50;;;;;;;4.99;93.74;97730.55;1739981;82;21055;-84
2021/12/16 02:52:47;;;;;;;21.02;13.75;;;;;;;5.02;93.51;97726.45;1729092;82;21046;-84
2021/12/16 02:55:16;;;;;;;18.75;13.00;;;;;;;5.01;93.36;97727.39;1746431;82;20995;-84
2021/12/16 02:57:50;;;;;;;18.40;13.88;;;;;;;5.00;93.36;97724.47;1749915;82;21035;-84
2021/12/16 03:00:15;;;;;;;18.90;13.43;;;;;;;4.98;93.35;97719.90;1738499;82;21031;-84
2021/12/16 03:02:42;;;;;;;19.80;14.00;;;;;;;4.93;93.21;97716.86;1736449;82;21008;-84
2021/12/16 03:05:10;;;;;;;19.23;13.48;;;;;;;4.96;93.48;97716.63;1719936;82;21112;-84
2021/12/16 03:07:36;;;;;;;18.50;12.88;;;;;;;4.96;93.12;97717.91;1724978;82;21418;-84
2021/12/16 03:11:01;;;;;;;14.13;11.33;;;;;;;4.95;93.04;97714.52;1718511;82;21022;-84
2021/12/16 03:12:52;;;;;;;19.20;13.98;;;;;;;4.93;92.82;97722.83;1707251;82;21502;-84
2021/12/16 03:15:25;;;;;;;20.95;14.95;;;;;;;4.91;93.12;97721.30;1720355;82;21055;-84
2021/12/16 03:20:31;;;;;;;25.80;22.90;;;;;;;4.90;93.50;97717.09;1723743;82;21102;-85
2021/12/16 03:26:06;;;;;;;24.57;17.15;;;;;;;4.91;93.51;97725.16;1742927;82;21018;-84
2021/12/16 03:38:23;;;;;;;18.37;13.48;;;;;;;4.90;94.00;97734.64;1716826;81;21091;-85
2021/12/16 03:40:48;;;;;;;16.00;11.30;;;;;;;4.91;93.84;97735.00;1747771;80;21036;-85
2021/12/16 03:43:18;;;;;;;16.67;12.07;;;;;;;4.95;93.86;97741.55;1763565;80;21091;-85
2021/12/16 03:48:50;;;;;;;25.25;16.12;;;;;;;4.98;94.05;97739.22;1731586;80;21100;-85
2021/12/16 03:51:37;;;;;;;34.75;20.70;;;;;;;5.02;94.38;97736.76;1752819;80;21410;-85
2021/12/16 03:54:25;;;;;;;28.80;19.27;;;;;;;5.00;94.21;97745.07;1768423;80;21122;-85
2021/12/16 03:56:52;;;;;;;32.03;20.57;;;;;;;5.02;94.41;97736.76;1765778;80;21486;-84
2021/12/16 03:59:21;;;;;;;28.27;19.37;;;;;;;5.02;94.38;97738.87;1747385;80;21134;-85
2021/12/16 04:01:47;;;;;;;25.65;18.48;;;;;;;5.06;94.49;97736.91;1772489;80;21060;-85
2021/12/16 04:04:13;;;;;;;33.08;22.15;;;;;;;5.12;94.50;97732.58;1763081;80;21037;-85
2021/12/16 04:06:39;;;;;;;33.70;21.97;;;;;;;5.12;94.40;97732.58;1765428;80;21087;-85
2021/12/16 04:09:08;;;;;;;29.27;20.10;;;;;;;5.16;94.42;97734.45;1762403;80;21066;-84
2021/12/16 04:11:40;;;;;;;27.82;18.95;;;;;;;5.15;94.50;97743.94;1768521;80;21414;-85
2021/12/16 04:14:09;;;;;;;31.37;22.70;;;;;;;5.16;94.56;97749.91;1756117;80;20996;-84
2021/12/16 04:16:45;;;;;;;28.80;19.27;;;;;;;5.23;94.82;97750.64;1762462;80;21031;-84
2021/12/16 04:19:14;;;;;;;31.00;21.07;;;;;;;5.27;94.43;97746.07;1753201;80;21161;-85
2021/12/16 04:21:44;;;;;;;32.85;20.23;;;;;;;5.28;94.43;97748.53;1772582;80;21213;-85
2021/12/16 04:24:10;;;;;;;35.83;22.02;;;;;;;5.21;94.17;97749.94;1773853;80;21051;-85
2021/12/16 04:26:36;;;;;;;25.92;17.98;;;;;;;5.20;94.36;97746.16;1774220;80;21084;-85
2021/12/16 04:29:04;;;;;;;33.53;22.77;;;;;;;5.12;94.13;97746.74;1728305;80;21054;-84
2021/12/16 04:31:31;;;;;;;26.37;18.25;;;;;;;5.09;94.31;97745.22;1779069;80;21064;-85
2021/12/16 04:33:57;;;;;;;20.85;16.60;;;;;;;5.10;94.41;97744.28;1769003;79;21106;-85
2021/12/16 04:36:23;;;;;;;34.58;26.68;;;;;;;5.11;94.20;97748.97;1749186;80;21087;-84
2021/12/16 04:38:48;;;;;;;37.23;28.98;;;;;;;5.09;94.32;97749.55;1765189;80;21386;-85
2021/12/16 04:41:15;;;;;;;42.95;32.30;;;;;;;5.07;94.42;97752.72;1754981;80;21122;-85
2021/12/16 04:43:47;;;;;;;28.32;20.05;;;;;;;5.08;94.66;97756.94;1749863;80;21072;-85
2021/12/16 04:46:18;;;;;;;28.75;18.92;;;;;;;5.06;94.67;97754.94;1759898;80;21030;-85
2021/12/16 04:48:46;;;;;;;39.78;32.20;;;;;;;5.06;94.69;97758.81;1753639;80;21051;-85
2021/12/16 04:51:12;;;;;;;32.40;25.55;;;;;;;5.10;94.86;97753.30;1751416;80;21432;-85
2021/12/16 04:53:39;;;;;;;30.30;21.35;;;;;;;5.15;94.79;97759.86;1780814;80;20979;-85
2021/12/16 04:56:07;;;;;;;36.08;25.92;;;;;;;5.12;94.56;97761.73;1747736;80;21398;-85
2021/12/16 04:58:33;;;;;;;38.88;25.00;;;;;;;5.19;95.01;97759.98;1766413;80;21022;-85
2021/12/16 05:00:59;;;;;;;27.10;20.35;;;;;;;5.19;94.89;97759.52;1771840;80;21027;-85
2021/12/16 05:03:25;;;;;;;26.07;18.27;;;;;;;5.20;94.81;97762.44;1765102;80;21034;-85
2021/12/16 05:05:51;;;;;;;26.62;18.57;;;;;;;5.19;94.74;97759.52;1754563;80;21019;-84
2021/12/16 05:08:17;;;;;;;25.80;18.20;;;;;;;5.19;94.73;97760.80;1767042;80;21367;-85
2021/12/16 05:10:44;;;;;;;31.62;21.93;;;;;;;5.20;94.65;97760.33;1770125;80;21397;-85
2021/12/16 05:13:10;;;;;;;34.08;23.38;;;;;;;5.20;94.62;97762.91;1773224;80;21058;-85
2021/12/16 05:15:38;;;;;;;29.55;21.60;;;;;;;5.18;94.61;97769.94;1756885;80;21406;-85
2021/12/16 05:18:07;;;;;;;28.20;19.10;;;;;;;5.20;94.87;97766.30;1780448;80;21011;-85
2021/12/16 05:20:39;;;;;;;31.93;22.30;;;;;;;5.20;95.05;97770.17;1780611;80;21099;-85
2021/12/16 05:28:20;;;;;;;25.23;15.60;;;;;;;5.33;95.31;97780.39;1764057;79;21040;-85
2021/12/16 05:30:46;;;;;;;27.67;19.23;;;;;;;5.39;94.87;97784.64;1780790;80;21425;-85
2021/12/16 05:33:12;;;;;;;25.85;17.77;;;;;;;5.36;94.33;97783.55;1772590;80;21087;-85
2021/12/16 05:35:37;;;;;;;23.18;16.62;;;;;;;5.33;94.56;97786.37;1774758;80;21051;-85
2021/12/16 05:38:03;;;;;;;28.57;19.67;;;;;;;5.30;94.81;97787.06;1758286;79;21004;-85
2021/12/16 05:40:29;;;;;;;28.05;21.68;;;;;;;5.29;94.76;97791.41;1769063;80;21008;-85
2021/12/16 05:42:59;;;;;;;22.70;17.20;;;;;;;5.30;94.61;97788.36;1755484;79;21011;-85
2021/12/16 05:45:25;;;;;;;21.15;16.50;;;;;;;5.32;94.54;97793.75;1779165;80;21119;-85
2021/12/16 05:47:53;;;;;;;22.93;16.42;;;;;;;5.34;94.63;97797.03;1768327;80;21031;-85
2021/12/16 05:50:19;;;;;;;26.40;18.00;;;;;;;5.38;94.64;97791.20;1764992;80;21414;-85
2021/12/16 05:52:45;;;;;;;21.97;16.23;;;;;;;5.37;94.38;97796.00;1747790;80;21150;-84
2021/12/16 05:55:12;;;;;;;19.67;14.25;;;;;;;5.36;94.46;97802.06;1753182;80;21474;-85
2021/12/16 05:57:38;;;;;;;18.17;13.68;;;;;;;5.35;94.03;97800.42;1778036;80;20992;-85
2021/12/16 06:00:07;;;;;;;17.55;14.50;;;;;;;5.30;93.87;97799.95;1778847;80;21083;-85
2021/12/16 06:02:33;;;;;;;19.87;14.90;;;;;;;5.31;94.21;97799.84;1774532;79;21451;-85
2021/12/16 06:04:59;;;;;;;19.73;14.25;;;;;;;5.34;94.45;97794.92;1764226;80;21099;-85
2021/12/16 06:07:24;;;;;;;19.75;15.13;;;;;;;5.37;94.45;97790.84;1764719;80;21020;-84
2021/12/16 06:09:50;;;;;;;17.25;14.33;;;;;;;5.36;94.13;97798.20;1753177;80;21437;-85
2021/12/16 06:12:17;;;;;;;16.48;12.30;;;;;;;5.29;93.94;97792.69;1757123;80;21067;-84
2021/12/16 06:15:17;;;;;;;14.43;11.88;;;;;;;5.27;93.84;97797.14;1737123;80;21351;-84
2021/12/16 06:28:08;;;;;;;14.93;10.78;;;;;;;5.22;93.79;97801.00;1762895;80;21036;-84
2021/12/16 06:30:40;;;;;;;15.63;12.58;;;;;;;5.23;94.05;97797.03;1748416;80;21086;-84
2021/12/16 06:33:09;;;;;;;13.90;10.50;;;;;;;5.20;93.80;97801.09;1750942;80;21078;-84
2021/12/16 06:35:36;;;;;;;21.10;18.52;;;;;;;5.19;93.67;97796.05;1772131;80;20968;-84
2021/12/16 06:38:01;;;;;;;19.27;16.75;;;;;;;5.16;93.67;97796.29;1725384;80;20990;-83
2021/12/16 06:40:27;;;;;;;33.60;30.27;;;;;;;5.15;93.89;97810.11;1761952;80;21493;-84
2021/12/16 06:42:56;;;;;;;17.52;12.82;;;;;;;5.16;94.04;97809.17;1768640;80;21083;-83
2021/12/16 06:45:27;;;;;;;16.35;11.97;;;;;;;5.13;93.96;97807.18;1768970;80;21012;-84
2021/12/16 06:48:00;;;;;;;14.33;11.45;;;;;;;5.13;93.85;97810.22;1741967;80;21098;-83
2021/12/16 06:50:36;;;;;;;13.25;11.48;;;;;;;5.12;93.67;97804.25;1769070;80;20973;-84
2021/12/16 06:52:54;;;;;;;13.58;10.70;;;;;;;5.12;93.51;97808.58;1762043;80;21084;-84
2021/12/16 06:55:34;;;;;;;13.93;11.15;;;;;;;5.11;93.62;97804.36;1778914;80;21103;-83
2021/12/16 06:57:54;;;;;;;12.40;10.08;;;;;;;5.12;93.74;97812.45;1781519;80;20984;-84
2021/12/16 07:00:28;;;;;;;13.80;9.55;;;;;;;5.12;93.76;97806.83;1783564;80;21046;-84
2021/12/16 07:05:17;;;;;;;9.60;8.20;;;;;;;5.07;93.56;97810.69;1753921;80;21158;-83
2021/12/16 07:07:43;;;;;;;14.58;12.98;;;;;;;5.11;93.58;97808.23;1758176;79;21084;-84
2021/12/16 07:10:11;;;;;;;12.50;10.78;;;;;;;5.10;93.52;97811.74;1778100;80;21064;-83
2021/12/16 07:12:38;;;;;;;12.98;9.15;;;;;;;5.11;93.76;97808.23;1766839;80;20996;-84
2021/12/16 07:15:10;;;;;;;10.75;8.83;;;;;;;5.09;93.69;97810.10;1768834;80;21302;-84
2021/12/16 07:17:37;;;;;;;9.15;7.55;;;;;;;5.07;93.88;97802.95;1779242;80;21019;-83
2021/12/16 07:20:05;;;;;;;9.10;7.37;;;;;;;5.07;93.61;97808.11;1778581;80;21063;-83
2021/12/16 07:22:31;;;;;;;10.13;7.90;;;;;;;5.05;93.46;97809.98;1779211;80;21015;-83
2021/12/16 07:24:57;;;;;;;10.43;9.30;;;;;;;5.06;93.59;97811.63;1763713;80;21027;-84
2021/12/16 07:27:23;;;;;;;10.20;8.45;;;;;;;5.09;93.66;97816.08;1757049;80;21143;-84
2021/12/16 07:29:49;;;;;;;12.23;8.93;;;;;;;5.07;93.57;97804.24;1753261;80;21067;-83
2021/12/16 07:32:14;;;;;;;12.23;9.68;;;;;;;5.07;93.83;97797.33;1773829;80;21023;-83
2021/12/16 07:34:40;;;;;;;12.37;9.30;;;;;;;5.06;93.82;97793.59;1762526;80;20996;-84
2021/12/16 07:37:08;;;;;;;10.85;8.03;;;;;;;5.07;93.88;97795.22;1779945;80;21071;-83
2021/12/16 07:39:41;;;;;;;11.05;8.10;;;;;;;5.08;93.81;97802.02;1773353;80;21013;-84
2021/12/16 07:42:11;;;;;;;13.15;10.58;;;;;;;5.11;93.92;97800.03;1758180;80;21083;-83
2021/12/16 07:44:37;;;;;;;11.93;9.73;;;;;;;5.15;93.86;97800.62;1766404;80;21019;-83
2021/12/16 07:47:06;;;;;;;11.68;9.18;;;;;;;5.13;93.82;97794.77;1779143;80;21031;-83
2021/12/16 07:49:40;;;;;;;11.88;10.55;;;;;;;5.11;93.92;97796.17;1778675;80;20991;-83
2021/12/16 07:52:09;;;;;;;11.48;9.20;;;;;;;5.12;94.11;97800.85;1747699;80;21044;-83
2021/12/16 07:54:35;;;;;;;13.43;10.88;;;;;;;5.16;94.23;97800.97;1758160;80;20992;-83
2021/12/16 07:57:01;;;;;;;13.13;9.45;;;;;;;5.21;94.21;97800.19;1780112;79;21023;-83
2021/12/16 07:59:28;;;;;;;16.15;11.80;;;;;;;5.24;94.10;97801.71;1764094;80;20996;-83
2021/12/16 08:01:55;;;;;;;15.58;12.58;;;;;;;5.24;93.92;97803.00;1768851;80;21143;-83
2021/12/16 08:04:27;;;;;;;17.77;12.47;;;;;;;5.22;93.99;97806.16;1772255;80;20996;-83
2021/12/16 08:06:51;;;;;;;12.37;10.50;;;;;;;5.20;94.07;97806.72;1768819;80;20989;-83
2021/12/16 08:09:18;;;;;;;15.28;11.75;;;;;;;5.21;94.23;97810.50;1779953;79;21429;-83
2021/12/16 08:11:44;;;;;;;17.30;13.40;;;;;;;5.21;94.08;97809.67;1775378;80;21068;-83
2021/12/16 08:14:10;;;;;;;17.12;13.88;;;;;;;5.22;94.04;97808.27;1767329;80;21103;-83
2021/12/16 08:16:36;;;;;;;20.27;15.75;;;;;;;5.26;93.98;97806.28;1765770;80;21083;-83
2021/12/16 08:19:03;;;;;;;21.07;16.23;;;;;;;5.29;93.98;97809.45;1761368;80;21039;-83
2021/12/16 08:21:29;;;;;;;19.40;15.48;;;;;;;5.36;94.41;97803.35;1766189;80;21357;-83
2021/12/16 08:23:57;;;;;;;21.27;14.85;;;;;;;5.36;93.91;97816.24;1710621;81;20982;-83
2021/12/16 08:26:23;;;;;;;20.48;14.87;;;;;;;5.37;94.16;97813.58;1761400;80;21371;-83
2021/12/16 08:28:49;;;;;;;20.00;15.28;;;;;;;5.35;93.77;97814.13;1778653;80;21053;-83
2021/12/16 08:31:15;;;;;;;21.45;15.15;;;;;;;5.36;93.67;97817.06;1754840;80;21090;-84
2021/12/16 08:33:40;;;;;;;18.07;14.43;;;;;;;5.34;93.39;97817.64;1747998;81;21034;-84
2021/12/16 08:36:08;;;;;;;22.35;15.28;;;;;;;5.36;93.40;97821.39;1751194;80;21075;-83
2021/12/16 08:38:34;;;;;;;21.30;15.83;;;;;;;5.38;93.55;97817.80;1778356;80;20968;-84
2021/12/16 08:41:05;;;;;;;26.10;17.82;;;;;;;5.39;93.39;97820.72;1775560;80;20999;-83
2021/12/16 08:43:32;;;;;;;25.05;18.70;;;;;;;5.36;93.30;97820.11;1747759;80;21103;-83
2021/12/16 08:45:58;;;;;;;26.35;19.23;;;;;;;5.37;93.39;97828.22;1751264;80;21134;-83
2021/12/16 08:48:26;;;;;;;26.57;20.97;;;;;;;5.41;93.39;97825.77;1763510;80;21000;-83
2021/12/16 08:50:52;;;;;;;24.47;19.87;;;;;;;5.44;93.30;97821.66;1762292;80;21022;-83
2021/12/16 08:53:19;;;;;;;28.85;21.52;;;;;;;5.48;93.13;97816.62;1779084;80;21413;-84
2021/12/16 08:55:45;;;;;;;27.73;20.48;;;;;;;5.52;93.25;97818.50;1754259;80;21402;-83
2021/12/16 08:58:12;;;;;;;27.42;21.17;;;;;;;5.53;93.15;97820.98;1762955;80;21094;-84
2021/12/16 09:00:42;;;;;;;27.52;19.12;;;;;;;5.54;93.35;97816.18;1779959;79;21027;-84
2021/12/16 09:03:09;;;;;;;30.60;21.07;;;;;;;5.56;93.26;97814.30;1767748;80;20992;-83
2021/12/16 09:05:34;;;;;;;39.05;25.70;;;;;;;5.55;92.70;97818.30;1772649;80;21362;-84
2021/12/16 09:08:00;;;;;;;34.92;26.33;;;;;;;5.59;92.75;97814.54;1758374;79;21000;-84
2021/12/16 09:10:30;;;;;;;28.50;21.87;;;;;;;5.64;92.96;97817.11;1775224;80;21016;-84
2021/12/16 09:13:03;;;;;;;33.98;23.85;;;;;;;5.65;92.66;97814.88;1780288;80;21138;-84
2021/12/16 09:15:38;;;;;;;34.78;23.75;;;;;;;5.61;92.59;97808.80;1780857;80;21441;-84
2021/12/16 09:18:04;;;;;;;30.37;20.65;;;;;;;5.59;92.77;97810.67;1750702;80;21118;-83
2021/12/16 09:20:31;;;;;;;28.62;19.85;;;;;;;5.60;92.86;97808.45;1761862;80;21485;-84
2021/12/16 09:22:57;;;;;;;25.10;17.90;;;;;;;5.60;92.83;97806.69;1763915;80;21023;-83
2021/12/16 09:25:23;;;;;;;25.85;19.20;;;;;;;5.60;92.63;97802.81;1754651;79;21126;-84
2021/12/16 09:27:49;;;;;;;31.23;23.02;;;;;;;5.63;92.82;97803.87;1777894;80;20997;-82
2021/12/16 09:30:19;;;;;;;29.98;22.48;;;;;;;5.68;92.86;97804.80;1770254;80;21087;-84
2021/12/16 09:32:45;;;;;;;28.05;20.35;;;;;;;5.72;92.96;97806.23;1775231;80;21051;-83
2021/12/16 09:35:11;;;;;;;26.02;17.27;;;;;;;5.73;92.84;97794.51;1775825;80;21038;-83
2021/12/16 09:37:37;;;;;;;23.12;17.10;;;;;;;5.73;92.85;97792.40;1770991;80;21101;-83
2021/12/16 09:40:11;;;;;;;28.15;19.30;;;;;;;5.70;92.54;97797.33;1779608;80;20995;-83
2021/12/16 09:42:37;;;;;;;34.53;26.65;;;;;;;5.72;92.92;97801.08;1760325;80;21418;-84
2021/12/16 09:45:08;;;;;;;31.93;22.98;;;;;;;5.81;93.31;97805.98;1759866;80;21090;-85
2021/12/16 09:47:37;;;;;;;38.28;27.50;;;;;;;5.88;93.14;97801.55;1759934;80;21486;-84
2021/12/16 09:50:05;;;;;;;38.00;28.85;;;;;;;5.92;92.79;97800.40;1778176;80;21003;-84
2021/12/16 09:52:32;;;;;;;35.33;27.13;;;;;;;5.92;92.62;97800.86;1769714;80;21011;-83
2021/12/16 09:54:58;;;;;;;39.65;24.70;;;;;;;5.91;92.67;97799.23;1775649;80;21023;-83
2021/12/16 09:57:25;;;;;;;33.45;23.42;;;;;;;5.90;92.77;97803.56;1770997;80;21380;-83
2021/12/16 09:59:51;;;;;;;49.03;26.80;;;;;;;5.94;92.75;97797.22;1766213;79;21131;-83
2021/12/16 10:02:19;;;;;;;41.92;22.05;;;;;;;5.95;92.32;97790.30;1774845;80;21098;-83
2021/12/16 10:04:45;;;;;;;32.67;21.37;;;;;;;5.93;92.16;97783.98;1764694;80;21078;-83
2021/12/16 10:07:19;;;;;;;28.90;20.52;;;;;;;5.95;92.16;97785.97;1727093;80;21024;-83
2021/12/16 10:09:49;;;;;;;33.13;24.30;;;;;;;5.96;92.05;97793.23;1757874;80;21023;-83
2021/12/16 10:12:18;;;;;;;29.30;24.20;;;;;;;5.94;92.21;97792.53;1735998;80;20988;-83
2021/12/16 10:15:01;;;;;;;26.15;18.90;;;;;;;5.96;92.44;97782.91;1774488;80;21094;-84
2021/12/16 10:17:25;;;;;;;24.82;17.05;;;;;;;6.00;92.37;97785.60;1762410;79;21058;-83
2021/12/16 10:19:48;;;;;;;28.07;20.00;;;;;;;6.03;92.10;97778.94;1763665;80;21000;-83
2021/12/16 10:22:32;;;;;;;28.65;20.37;;;;;;;6.03;91.83;97772.95;1775836;80;21055;-83
2021/12/16 10:25:00;;;;;;;29.95;20.50;;;;;;;6.02;91.77;97769.56;1774937;80;21117;-84
2021/12/16 10:27:27;;;;;;;30.40;20.92;;;;;;;6.03;91.88;97758.30;1767092;80;21039;-83
2021/12/16 10:30:05;;;;;;;25.85;20.00;;;;;;;6.04;92.30;97757.35;1756498;80;21417;-84
2021/12/16 10:32:40;;;;;;;24.72;17.57;;;;;;;6.06;92.10;97768.37;1752347;80;21039;-83
2021/12/16 10:35:27;;;;;;;23.60;15.75;;;;;;;6.01;91.72;97770.00;1774286;80;21107;-83
2021/12/16 10:38:01;;;;;;;21.23;16.15;;;;;;;6.01;91.49;97762.26;1780756;80;21055;-83
2021/12/16 10:40:44;;;;;;;33.05;22.58;;;;;;;6.04;91.72;97761.69;1780326;80;20992;-84
2021/12/16 10:43:31;;;;;;;33.75;23.50;;;;;;;6.05;91.74;97760.28;1770929;80;21050;-84
2021/12/16 10:46:02;;;;;;;26.05;17.37;;;;;;;6.05;91.73;97764.16;1747994;80;21055;-83
2021/12/16 10:48:36;;;;;;;22.77;17.60;;;;;;;6.03;91.73;97760.87;1763575;80;21046;-84
2021/12/16 10:51:20;;;;;;;27.25;18.55;;;;;;;5.99;91.68;97766.72;1754771;80;21019;-83
2021/12/16 10:54:19;;;;;;;20.95;16.02;;;;;;;5.97;91.62;97764.73;1770438;80;21441;-84
2021/12/16 10:56:51;;;;;;;23.10;17.15;;;;;;;6.00;91.78;97766.25;1756631;80;21055;-84
2021/12/16 10:59:21;;;;;;;26.35;19.87;;;;;;;5.96;91.75;97763.56;1770591;80;21378;-84
2021/12/16 11:02:17;;;;;;;28.55;19.50;;;;;;;5.92;91.83;97764.28;1767711;80;21434;-84
2021/12/16 11:05:06;;;;;;;32.00;20.48;;;;;;;5.89;92.10;97759.33;1780303;80;21460;-84
2021/12/16 11:07:37;;;;;;;25.70;19.07;;;;;;;5.86;92.19;97766.02;1780399;79;21030;-84
2021/12/16 11:10:29;;;;;;;27.85;19.90;;;;;;;5.86;92.42;97760.86;1769373;80;21080;-84
2021/12/16 11:13:07;;;;;;;32.33;25.82;;;;;;;5.90;92.54;97767.92;1757219;80;21004;-83
2021/12/16 11:15:47;;;;;;;28.67;23.45;;;;;;;5.92;92.55;97778.47;1750915;80;21433;-83
2021/12/16 11:18:17;;;;;;;34.75;22.87;;;;;;;5.96;92.70;97773.89;1771795;80;21051;-83
2021/12/16 11:20:53;;;;;;;30.62;21.23;;;;;;;5.99;92.86;97773.64;1770319;80;21070;-83
2021/12/16 11:23:24;;;;;;;28.77;21.20;;;;;;;5.97;92.57;97778.92;1780518;80;21438;-84
2021/12/16 11:26:03;;;;;;;30.77;22.17;;;;;;;5.93;92.45;97776.23;1765494;80;21079;-83
2021/12/16 11:28:41;;;;;;;29.65;22.90;;;;;;;5.93;92.46;97770.26;1749355;80;21433;-83
2021/12/16 11:31:12;;;;;;;26.60;21.35;;;;;;;5.92;92.37;97769.44;1749454;80;21095;-83
2021/12/16 11:33:48;;;;;;;30.35;21.12;;;;;;;5.88;92.40;97764.14;1765870;80;21098;-84
2021/12/16 11:36:26;;;;;;;30.27;20.70;;;;;;;5.85;92.59;97764.35;1766989;80;21122;-83
2021/12/16 11:39:01;;;;;;;31.93;23.45;;;;;;;5.86;92.82;97774.23;1760544;80;21043;-83
2021/12/16 11:42:00;;;;;;;28.65;21.25;;;;;;;5.86;92.80;97766.49;1765455;80;21100;-83
2021/12/16 11:44:35;;;;;;;33.90;22.87;;;;;;;5.84;92.67;97768.34;1730847;82;21060;-83
2021/12/16 11:47:10;;;;;;;29.80;20.68;;;;;;;5.82;92.72;97768.46;1780912;80;21063;-83
2021/12/16 11:49:40;;;;;;;27.00;23.27;;;;;;;5.82;92.83;97767.64;1773398;80;21058;-83
2021/12/16 11:52:27;;;;;;;30.72;22.62;;;;;;;5.81;93.00;97768.12;1766133;79;21015;-83
2021/12/16 11:55:01;;;;;;;27.93;21.73;;;;;;;5.84;93.30;97769.63;1755023;80;21378;-83
2021/12/16 11:57:52;;;;;;;30.62;23.98;;;;;;;5.81;93.05;97761.66;1769907;80;21113;-83
2021/12/16 12:00:25;;;;;;;30.60;23.22;;;;;;;5.78;93.14;97764.48;1770091;80;21435;-83
2021/12/16 12:02:56;;;;;;;29.75;21.02;;;;;;;5.73;92.84;97766.61;1773502;80;21150;-83
2021/12/16 12:05:37;;;;;;;30.02;21.90;;;;;;;5.72;93.12;97767.08;1776118;80;21064;-83
2021/12/16 12:08:26;;;;;;;31.77;24.40;;;;;;;5.75;93.22;97768.59;1766741;79;21114;-82
2021/12/16 12:11:02;;;;;;;37.75;27.52;;;;;;;5.74;93.47;97769.53;1763826;80;20968;-83
2021/12/16 12:13:40;;;;;;;32.50;22.50;;;;;;;5.71;93.59;97778.34;1777929;80;20987;-83
2021/12/16 12:16:18;;;;;;;31.40;22.82;;;;;;;5.73;93.81;97780.33;1780495;79;21121;-83
2021/12/16 12:18:54;;;;;;;32.83;24.25;;;;;;;5.78;93.82;97772.70;1762693;80;21015;-83
2021/12/16 12:21:54;;;;;;;36.53;26.90;;;;;;;5.78;93.55;97763.67;1749202;80;21186;-83
2021/12/16 12:24:26;;;;;;;38.08;27.05;;;;;;;5.79;93.55;97766.59;1766481;80;21007;-83
2021/12/16 12:27:07;;;;;;;37.45;27.82;;;;;;;5.82;93.74;97764.59;1765038;80;21094;-83
2021/12/16 12:29:51;;;;;;;31.20;24.95;;;;;;;5.84;93.76;97765.77;1749677;80;21443;-83
2021/12/16 12:32:29;;;;;;;33.23;23.55;;;;;;;5.79;93.62;97769.17;1754005;80;21035;-83
2021/12/16 12:35:00;;;;;;;29.92;21.60;;;;;;;5.76;93.77;97774.58;1773980;80;21029;-82
2021/12/16 12:37:31;;;;;;;32.10;22.95;;;;;;;5.80;93.87;97773.39;1770048;80;21063;-82
2021/12/16 12:40:11;;;;;;;23.45;18.55;;;;;;;5.80;93.79;97767.77;1771225;79;21417;-83
2021/12/16 12:42:37;;;;;;;27.22;18.80;;;;;;;5.77;93.59;97763.31;1762645;80;21474;-83
2021/12/16 12:45:06;;;;;;;27.70;21.77;;;;;;;5.76;93.58;97756.52;1770567;80;21079;-83
2021/12/16 12:47:34;;;;;;;27.40;21.85;;;;;;;5.74;93.68;97750.20;1765820;80;21018;-81
2021/12/16 12:50:14;;;;;;;25.80;20.62;;;;;;;5.71;93.71;97756.88;1749137;80;21450;-81
2021/12/16 12:52:40;;;;;;;19.73;15.65;;;;;;;5.71;93.92;97750.44;1758494;80;21119;-83
2021/12/16 12:55:14;;;;;;;21.68;16.85;;;;;;;5.71;94.15;97750.44;1760181;80;21157;-83
2021/12/16 12:57:42;;;;;;;24.50;18.10;;;;;;;5.70;93.90;97750.09;1770931;80;21074;-83
2021/12/16 13:00:27;;;;;;;25.15;17.65;;;;;;;5.71;94.02;97752.55;1768068;80;21090;-83
2021/12/16 13:03:17;;;;;;;28.87;18.82;;;;;;;5.72;93.95;97752.89;1759534;80;21078;-83
2021/12/16 13:05:54;;;;;;;29.30;20.75;;;;;;;5.74;94.11;97754.06;1770781;80;21063;-83
2021/12/16 13:08:28;;;;;;;34.33;24.55;;;;;;;5.79;94.22;97753.70;1745035;80;21022;-83
2021/12/16 13:11:02;;;;;;;31.40;22.55;;;;;;;5.82;94.20;97741.38;1770769;80;20968;-83
2021/12/16 13:13:33;;;;;;;28.17;20.45;;;;;;;5.77;93.94;97732.37;1765290;80;21027;-83
2021/12/16 13:24:27;;;;;;;23.60;18.00;;;;;;;5.69;94.07;97757.44;1688256;83;20997;-83
2021/12/16 13:29:42;;;;;;;27.52;19.15;;;;;;;5.73;94.25;97766.61;1743798;80;21359;-83
2021/12/16 13:32:29;;;;;;;30.90;21.42;;;;;;;5.76;94.23;97765.55;1761535;79;21066;-83
2021/12/16 13:34:57;;;;;;;27.22;21.00;;;;;;;5.73;94.21;97767.90;1781151;80;21103;-83
2021/12/16 13:37:36;;;;;;;22.30;16.55;;;;;;;5.71;94.22;97768.48;1780425;80;21437;-83
2021/12/16 13:40:16;;;;;;;25.68;18.07;;;;;;;5.69;94.13;97771.62;1760419;80;20976;-83
2021/12/16 13:42:59;;;;;;;24.23;20.25;;;;;;;5.68;94.16;97762.25;1777209;80;21078;-83
2021/12/16 13:45:38;;;;;;;23.18;17.87;;;;;;;5.71;94.31;97765.44;1779845;80;21071;-83
2021/12/16 14:10:15;;;;;;;30.05;22.30;;;;;;;5.72;94.56;97761.10;1765043;80;21086;-83
2021/12/16 14:15:25;;;;;;;23.57;18.67;;;;;;;5.66;94.62;97773.97;1778818;80;21094;-83
2021/12/16 14:18:09;;;;;;;23.47;19.62;;;;;;;5.65;94.52;97771.05;1775798;80;20969;-83
2021/12/16 14:23:50;;;;;;;47.27;35.20;;;;;;;5.68;94.63;97755.80;1770582;80;21374;-83
2021/12/16 14:49:49;;;;;;;23.07;17.35;;;;;;;5.65;94.75;97784.41;1779620;80;21012;-83
2021/12/16 14:52:19;;;;;;;19.12;15.55;;;;;;;5.59;94.78;97780.55;1749210;81;21497;-83
2021/12/16 14:55:00;;;;;;;20.70;16.45;;;;;;;5.58;94.86;97782.78;1754253;80;21393;-83
2021/12/16 14:57:36;;;;;;;22.07;15.63;;;;;;;5.56;94.82;97787.70;1761460;80;21050;-83
2021/12/16 15:00:19;;;;;;;20.92;15.53;;;;;;;5.57;94.85;97781.61;1749032;80;21031;-83
2021/12/16 15:02:47;;;;;;;21.40;16.35;;;;;;;5.60;94.98;97785.23;1765082;80;21059;-83
2021/12/16 15:05:31;;;;;;;22.60;18.60;;;;;;;5.63;95.11;97784.53;1781385;80;21031;-83
2021/12/16 15:08:10;;;;;;;26.12;19.40;;;;;;;5.60;95.00;97783.95;1781167;80;21008;-83
2021/12/16 15:10:37;;;;;;;21.15;16.00;;;;;;;5.54;95.26;97782.66;1765169;80;20984;-83
2021/12/16 15:13:10;;;;;;;24.37;18.50;;;;;;;5.53;95.33;97790.48;1754803;80;21154;-83
2021/12/16 15:15:50;;;;;;;20.85;16.48;;;;;;;5.53;95.35;97799.52;1758115;80;21063;-83
2021/12/16 15:45:17;;;;;;;33.92;25.12;;;;;;;5.61;95.81;97807.50;1745326;82;21517;-83
2021/12/16 15:47:51;;;;;;;36.77;24.63;;;;;;;5.64;95.90;97805.51;1723345;82;21015;-83